Time;durP1;ratioP1;P1;durP2;ratioP2;P2;SDS_P1;SDS_P2;PMS_P1;PMS_P2;Temp;Humidity;BMP_temperature;BMP_pressure;BME280_temperature;BME280_humidity;BME280_pressure;Samples;Min_cycle;Max_cycle;Signal;HPM_P1;HPM_P2
2022/01/02 00:00:14;;;;;;;1.88;1.85;;;;;;;;;;6271202;22;20218;-65
2022/01/02 00:02:40;;;;;;;0.00;0.00;;;;;;;;;;6271616;22;19992;-65
2022/01/02 00:05:08;;;;;;;0.00;0.00;;;;;;;;;;6271132;22;20003;-65
2022/01/02 00:07:56;;;;;;;0.00;0.00;;;;;;;;;;6271512;22;20000;-65
2022/01/02 00:10:22;;;;;;;0.00;0.00;;;;;;;;;;6251306;22;20012;-64
2022/01/02 00:12:52;;;;;;;0.00;0.00;;;;;;;;;;6270996;22;20018;-65
2022/01/02 00:15:19;;;;;;;0.00;0.00;;;;;;;;;;6271668;22;20006;-65
2022/01/02 00:17:45;;;;;;;0.00;0.00;;;;;;;;;;6272067;22;20429;-67
2022/01/02 00:20:12;;;;;;;0.00;0.00;;;;;;;;;;6271230;22;20003;-65
2022/01/02 00:22:40;;;;;;;0.73;0.73;;;;;;;;;;6271769;22;19995;-66
2022/01/02 00:25:12;;;;;;;0.00;0.00;;;;;;;;;;6269795;22;20341;-66
2022/01/02 00:27:37;;;;;;;0.00;0.00;;;;;;;;;;6270032;22;20016;-65
2022/01/02 00:30:06;;;;;;;0.70;0.70;;;;;;;;;;6270319;22;20002;-65
2022/01/02 00:32:32;;;;;;;0.00;0.00;;;;;;;;;;6270927;22;20004;-65
2022/01/02 00:35:00;;;;;;;0.00;0.00;;;;;;;;;;6270579;22;20047;-67
2022/01/02 00:37:25;;;;;;;1.95;1.95;;;;;;;;;;6245740;22;20801;-67
2022/01/02 00:39:50;;;;;;;0.30;0.30;;;;;;;;;;6271913;22;20082;-65
2022/01/02 00:42:30;;;;;;;1.10;0.55;;;;;;;;;;6273481;22;19996;-64
2022/01/02 00:45:01;;;;;;;0.00;0.00;;;;;;;;;;6272915;22;20079;-65
2022/01/02 00:47:35;;;;;;;5.38;4.47;;;;;;;;;;6273746;22;20063;-66
2022/01/02 00:50:09;;;;;;;0.00;0.00;;;;;;;;;;6273303;22;20444;-66
2022/01/02 00:52:38;;;;;;;0.00;0.00;;;;;;;;;;6273594;22;19995;-66
2022/01/02 00:55:11;;;;;;;0.00;0.00;;;;;;;;;;6271896;22;20017;-66
2022/01/02 00:57:37;;;;;;;0.00;0.00;;;;;;;;;;6272451;22;20053;-66
2022/01/02 01:00:10;;;;;;;0.00;0.00;;;;;;;;;;6272136;22;20418;-66
2022/01/02 01:02:39;;;;;;;0.00;0.00;;;;;;;;;;6244442;22;20003;-67
2022/01/02 01:05:05;;;;;;;0.00;0.00;;;;;;;;;;6271591;22;20003;-67
2022/01/02 01:07:32;;;;;;;0.00;0.00;;;;;;;;;;6272752;22;20307;-65
2022/01/02 01:09:58;;;;;;;0.00;0.00;;;;;;;;;;6244645;22;20004;-66
2022/01/02 01:12:26;;;;;;;0.00;0.00;;;;;;;;;;6272301;22;19999;-67
2022/01/02 01:14:52;;;;;;;0.00;0.00;;;;;;;;;;6272118;22;20023;-65
2022/01/02 01:17:17;;;;;;;0.00;0.00;;;;;;;;;;6272570;22;20002;-67
2022/01/02 01:19:43;;;;;;;0.00;0.00;;;;;;;;;;6273538;22;19996;-67
2022/01/02 01:22:08;;;;;;;0.00;0.00;;;;;;;;;;6272909;22;20072;-66
2022/01/02 01:24:35;;;;;;;0.88;0.88;;;;;;;;;;6273382;22;20066;-65
2022/01/02 01:27:03;;;;;;;0.00;0.00;;;;;;;;;;6272459;22;20556;-65
2022/01/02 01:29:33;;;;;;;0.00;0.00;;;;;;;;;;6273284;22;20665;-65
2022/01/02 01:31:59;;;;;;;0.00;0.00;;;;;;;;;;6272905;22;20015;-67
2022/01/02 01:34:24;;;;;;;0.00;0.00;;;;;;;;;;6273132;22;19999;-67
2022/01/02 01:36:49;;;;;;;0.00;0.00;;;;;;;;;;6272933;22;20003;-66
2022/01/02 01:39:14;;;;;;;0.00;0.00;;;;;;;;;;6273130;22;20057;-66
2022/01/02 01:41:40;;;;;;;0.00;0.00;;;;;;;;;;6273020;22;20007;-67
2022/01/02 01:46:32;;;;;;;0.00;0.00;;;;;;;;;;6273443;22;20000;-66
2022/01/02 01:48:57;;;;;;;0.00;0.00;;;;;;;;;;6272859;22;20079;-66
2022/01/02 01:51:23;;;;;;;10.32;9.18;;;;;;;;;;6273127;22;20098;-67
2022/01/02 01:53:48;;;;;;;0.00;0.00;;;;;;;;;;6273051;22;19996;-66
2022/01/02 01:56:13;;;;;;;0.00;0.00;;;;;;;;;;6271991;22;20004;-66
2022/01/02 01:58:39;;;;;;;0.00;0.00;;;;;;;;;;6273275;22;20010;-66
2022/01/02 02:01:04;;;;;;;0.00;0.00;;;;;;;;;;6272093;22;19999;-66
2022/01/02 02:03:29;;;;;;;0.00;0.00;;;;;;;;;;6273145;22;20017;-66
2022/01/02 02:05:54;;;;;;;0.00;0.00;;;;;;;;;;6272657;22;20006;-65
2022/01/02 02:08:25;;;;;;;0.00;0.00;;;;;;;;;;6273206;22;20014;-66
2022/01/02 02:10:55;;;;;;;0.00;0.00;;;;;;;;;;6272577;22;20074;-65
2022/01/02 02:13:20;;;;;;;0.00;0.00;;;;;;;;;;6273081;22;20504;-66
2022/01/02 02:15:46;;;;;;;8.18;6.53;;;;;;;;;;6272866;22;20000;-66
2022/01/02 02:18:11;;;;;;;0.00;0.00;;;;;;;;;;6272330;22;20298;-64
2022/01/02 02:20:36;;;;;;;1.00;1.00;;;;;;;;;;6245851;22;20003;-66
2022/01/02 02:23:03;;;;;;;0.00;0.00;;;;;;;;;;6272102;22;20325;-66
2022/01/02 02:25:29;;;;;;;0.00;0.00;;;;;;;;;;6272612;22;19996;-66
2022/01/02 02:27:58;;;;;;;0.00;0.00;;;;;;;;;;6272164;22;20015;-66
2022/01/02 02:30:25;;;;;;;0.00;0.00;;;;;;;;;;6272292;22;20379;-66
2022/01/02 02:32:52;;;;;;;0.00;0.00;;;;;;;;;;6272877;22;19999;-66
2022/01/02 02:35:18;;;;;;;0.00;0.00;;;;;;;;;;6273112;22;20008;-66
2022/01/02 02:37:44;;;;;;;0.00;0.00;;;;;;;;;;6273129;22;20008;-66
2022/01/02 02:40:13;;;;;;;0.00;0.00;;;;;;;;;;6271773;22;20024;-63
2022/01/02 02:50:44;;;;;;;0.00;0.00;;;;;;;;;;6272682;22;20403;-66
2022/01/02 02:53:09;;;;;;;0.00;0.00;;;;;;;;;;6272080;22;20035;-66
2022/01/02 02:55:43;;;;;;;0.70;0.70;;;;;;;;;;6272294;22;19996;-66
2022/01/02 02:58:27;;;;;;;1.10;1.10;;;;;;;;;;6271623;22;20077;-66
2022/01/02 03:00:53;;;;;;;0.35;0.35;;;;;;;;;;6244728;22;20004;-66
2022/01/02 03:03:18;;;;;;;0.08;0.03;;;;;;;;;;6272553;22;20322;-66
2022/01/02 03:05:43;;;;;;;0.52;0.43;;;;;;;;;;6272355;22;20007;-66
2022/01/02 03:08:08;;;;;;;0.00;0.00;;;;;;;;;;6271899;22;20049;-65
2022/01/02 03:10:33;;;;;;;0.47;0.47;;;;;;;;;;6272126;22;20057;-65
2022/01/02 03:12:59;;;;;;;0.00;0.00;;;;;;;;;;6272067;22;20023;-65
2022/01/02 03:15:24;;;;;;;0.00;0.00;;;;;;;;;;6272175;22;19992;-66
2022/01/02 03:17:49;;;;;;;0.00;0.00;;;;;;;;;;6272386;22;20406;-65
2022/01/02 03:20:14;;;;;;;0.00;0.00;;;;;;;;;;6271715;22;19999;-65
2022/01/02 03:22:40;;;;;;;1.08;1.08;;;;;;;;;;6272190;22;20071;-65
2022/01/02 03:25:05;;;;;;;0.00;0.00;;;;;;;;;;6271768;22;20003;-65
2022/01/02 03:27:32;;;;;;;2.15;2.08;;;;;;;;;;6271296;22;20352;-65
2022/01/02 03:29:57;;;;;;;0.00;0.00;;;;;;;;;;6271799;22;19999;-65
2022/01/02 03:32:22;;;;;;;0.90;0.90;;;;;;;;;;6272122;22;19999;-65
2022/01/02 03:34:48;;;;;;;0.25;0.25;;;;;;;;;;6272314;22;19995;-65
2022/01/02 03:37:13;;;;;;;0.38;0.38;;;;;;;;;;6271896;22;20121;-65
2022/01/02 03:39:39;;;;;;;1.20;1.20;;;;;;;;;;6272058;22;19999;-65
2022/01/02 03:42:04;;;;;;;0.55;0.55;;;;;;;;;;6243888;22;20333;-65
2022/01/02 03:44:30;;;;;;;0.00;0.00;;;;;;;;;;6272360;22;20094;-65
2022/01/02 03:46:55;;;;;;;0.00;0.00;;;;;;;;;;6271423;22;20034;-65
2022/01/02 03:49:20;;;;;;;7.22;1.17;;;;;;;;;;6272307;22;20026;-69
2022/01/02 03:51:45;;;;;;;0.10;0.10;;;;;;;;;;6271832;22;20046;-65
2022/01/02 03:54:10;;;;;;;0.00;0.00;;;;;;;;;;6271471;22;20007;-65
2022/01/02 03:56:36;;;;;;;0.00;0.00;;;;;;;;;;6271289;22;20003;-65
2022/01/02 03:59:01;;;;;;;0.30;0.30;;;;;;;;;;6271465;22;20050;-65
2022/01/02 04:01:26;;;;;;;0.70;0.32;;;;;;;;;;6271709;22;20018;-65
2022/01/02 04:03:51;;;;;;;0.00;0.00;;;;;;;;;;6272117;22;20004;-65
2022/01/02 04:06:17;;;;;;;0.00;0.00;;;;;;;;;;6271850;22;20475;-65
2022/01/02 04:08:42;;;;;;;0.00;0.00;;;;;;;;;;6271988;22;20012;-66
2022/01/02 04:11:08;;;;;;;1.33;1.27;;;;;;;;;;6271086;22;19996;-66
2022/01/02 04:13:33;;;;;;;0.00;0.00;;;;;;;;;;6272110;22;20515;-67
2022/01/02 04:15:58;;;;;;;0.00;0.00;;;;;;;;;;6271158;22;20011;-66
2022/01/02 04:18:23;;;;;;;11.27;10.60;;;;;;;;;;6271913;22;20034;-66
2022/01/02 04:20:49;;;;;;;0.00;0.00;;;;;;;;;;6271839;22;20035;-66
2022/01/02 04:23:14;;;;;;;1.25;1.25;;;;;;;;;;6271233;22;20481;-66
2022/01/02 04:25:39;;;;;;;0.13;0.13;;;;;;;;;;6271144;22;20000;-66
2022/01/02 04:28:04;;;;;;;0.63;0.63;;;;;;;;;;6271463;22;20083;-64
2022/01/02 04:30:30;;;;;;;0.00;0.00;;;;;;;;;;6271900;22;20074;-66
2022/01/02 04:32:55;;;;;;;0.00;0.00;;;;;;;;;;6271935;22;20004;-66
2022/01/02 04:35:20;;;;;;;0.00;0.00;;;;;;;;;;6271182;22;20341;-67
2022/01/02 04:37:46;;;;;;;0.00;0.00;;;;;;;;;;6272320;22;20406;-67
2022/01/02 04:40:12;;;;;;;0.00;0.00;;;;;;;;;;6271011;22;20004;-66
2022/01/02 04:42:37;;;;;;;0.00;0.00;;;;;;;;;;6271592;22;19996;-66
2022/01/02 04:45:02;;;;;;;0.00;0.00;;;;;;;;;;6271051;22;20785;-65
2022/01/02 04:47:28;;;;;;;0.00;0.00;;;;;;;;;;6271809;22;19992;-66
2022/01/02 04:49:53;;;;;;;0.00;0.00;;;;;;;;;;6271998;22;19995;-66
2022/01/02 04:52:18;;;;;;;0.00;0.00;;;;;;;;;;6271497;22;20026;-66
2022/01/02 04:54:43;;;;;;;0.00;0.00;;;;;;;;;;6271047;22;20006;-67
2022/01/02 04:57:09;;;;;;;2.17;2.10;;;;;;;;;;6270968;22;20325;-66
2022/01/02 04:59:36;;;;;;;0.00;0.00;;;;;;;;;;6271851;22;19996;-67
2022/01/02 05:02:01;;;;;;;0.00;0.00;;;;;;;;;;6271168;22;20016;-67
2022/01/02 05:04:26;;;;;;;0.00;0.00;;;;;;;;;;6271775;22;20018;-67
2022/01/02 05:06:52;;;;;;;0.15;0.15;;;;;;;;;;6272064;22;20010;-67
2022/01/02 05:09:17;;;;;;;0.00;0.00;;;;;;;;;;6271167;22;20068;-66
2022/01/02 05:11:42;;;;;;;1.90;0.63;;;;;;;;;;6271394;22;19999;-66
2022/01/02 05:14:08;;;;;;;16.77;8.10;;;;;;;;;;6271265;22;19996;-66
2022/01/02 05:16:33;;;;;;;0.00;0.00;;;;;;;;;;6271217;22;20007;-66
2022/01/02 05:18:59;;;;;;;0.00;0.00;;;;;;;;;;6271821;22;19996;-66
2022/01/02 05:21:24;;;;;;;0.00;0.00;;;;;;;;;;6273006;22;20042;-66
2022/01/02 05:23:49;;;;;;;0.00;0.00;;;;;;;;;;6272951;22;19992;-66
2022/01/02 05:26:15;;;;;;;0.00;0.00;;;;;;;;;;6272413;22;20011;-66
2022/01/02 05:28:40;;;;;;;0.00;0.00;;;;;;;;;;6273606;22;20000;-64
2022/01/02 05:31:05;;;;;;;0.00;0.00;;;;;;;;;;6272756;22;20004;-66
2022/01/02 05:33:30;;;;;;;0.00;0.00;;;;;;;;;;6273736;22;20007;-66
2022/01/02 05:35:56;;;;;;;0.00;0.00;;;;;;;;;;6273338;22;20317;-66
2022/01/02 05:38:21;;;;;;;0.00;0.00;;;;;;;;;;6272753;22;20022;-67
2022/01/02 05:40:47;;;;;;;0.00;0.00;;;;;;;;;;6245624;22;20000;-66
2022/01/02 05:43:14;;;;;;;2.38;0.90;;;;;;;;;;6272243;22;20006;-66
2022/01/02 05:45:39;;;;;;;0.00;0.00;;;;;;;;;;6272955;22;20026;-66
2022/01/02 05:48:05;;;;;;;1.45;1.45;;;;;;;;;;6272704;22;20071;-65
2022/01/02 05:50:31;;;;;;;0.00;0.00;;;;;;;;;;6272980;22;20003;-65
2022/01/02 05:52:56;;;;;;;0.00;0.00;;;;;;;;;;6272857;22;20003;-65
2022/01/02 05:55:21;;;;;;;0.00;0.00;;;;;;;;;;6272348;22;19995;-66
2022/01/02 05:57:47;;;;;;;0.00;0.00;;;;;;;;;;6272698;22;19996;-65
2022/01/02 06:00:12;;;;;;;0.00;0.00;;;;;;;;;;6272836;22;20082;-65
2022/01/02 06:02:37;;;;;;;0.00;0.00;;;;;;;;;;6273360;22;20003;-66
2022/01/02 06:05:03;;;;;;;0.00;0.00;;;;;;;;;;6271989;22;19999;-66
2022/01/02 06:07:32;;;;;;;1.65;1.55;;;;;;;;;;6273266;22;20006;-66
2022/01/02 06:09:57;;;;;;;2.10;2.08;;;;;;;;;;6273240;22;20000;-65
2022/01/02 06:12:23;;;;;;;0.00;0.00;;;;;;;;;;6271982;22;19998;-66
2022/01/02 06:14:48;;;;;;;0.00;0.00;;;;;;;;;;6272626;22;20000;-66
2022/01/02 06:17:13;;;;;;;0.00;0.00;;;;;;;;;;6272102;22;20357;-65
2022/01/02 06:19:39;;;;;;;0.00;0.00;;;;;;;;;;6273078;22;20002;-66
2022/01/02 06:22:04;;;;;;;0.00;0.00;;;;;;;;;;6271059;22;20023;-65
2022/01/02 06:24:29;;;;;;;0.00;0.00;;;;;;;;;;6272388;22;19992;-65
2022/01/02 06:26:54;;;;;;;0.00;0.00;;;;;;;;;;6272087;22;20007;-66
2022/01/02 06:29:19;;;;;;;0.00;0.00;;;;;;;;;;6272473;22;20003;-66
2022/01/02 06:31:45;;;;;;;0.00;0.00;;;;;;;;;;6271698;22;20512;-66
2022/01/02 06:34:10;;;;;;;0.00;0.00;;;;;;;;;;6272128;22;20034;-66
2022/01/02 06:36:35;;;;;;;0.00;0.00;;;;;;;;;;6272758;22;20008;-65
2022/01/02 06:39:01;;;;;;;0.00;0.00;;;;;;;;;;6272434;22;20004;-66
2022/01/02 06:41:26;;;;;;;0.52;0.45;;;;;;;;;;6271751;22;20003;-66
2022/01/02 06:43:52;;;;;;;0.00;0.00;;;;;;;;;;6272664;22;20314;-66
2022/01/02 06:46:21;;;;;;;0.00;0.00;;;;;;;;;;6272112;22;20046;-66
2022/01/02 06:48:46;;;;;;;0.00;0.00;;;;;;;;;;6272315;22;20007;-66
2022/01/02 06:51:11;;;;;;;0.00;0.00;;;;;;;;;;6271608;22;20053;-71
2022/01/02 06:53:37;;;;;;;0.00;0.00;;;;;;;;;;6272349;22;20030;-70
2022/01/02 06:56:02;;;;;;;0.00;0.00;;;;;;;;;;6272182;22;20035;-70
2022/01/02 06:58:27;;;;;;;0.00;0.00;;;;;;;;;;6271819;22;20470;-70
2022/01/02 07:00:53;;;;;;;0.00;0.00;;;;;;;;;;6272625;22;20026;-70
2022/01/02 07:03:18;;;;;;;0.85;0.85;;;;;;;;;;6272180;22;20070;-70
2022/01/02 07:05:43;;;;;;;0.00;0.00;;;;;;;;;;6272427;22;20007;-69
2022/01/02 07:08:08;;;;;;;0.00;0.00;;;;;;;;;;6272063;22;20003;-70
2022/01/02 07:10:34;;;;;;;0.00;0.00;;;;;;;;;;6272678;22;20010;-70
2022/01/02 07:13:00;;;;;;;0.00;0.00;;;;;;;;;;6272326;22;20026;-70
2022/01/02 07:15:25;;;;;;;0.00;0.00;;;;;;;;;;6271578;22;20330;-70
2022/01/02 07:17:50;;;;;;;0.38;0.38;;;;;;;;;;6271944;22;20003;-70
2022/01/02 07:20:15;;;;;;;0.00;0.00;;;;;;;;;;6271849;22;19999;-69
2022/01/02 07:22:42;;;;;;;0.00;0.00;;;;;;;;;;6272265;22;20004;-69
2022/01/02 07:25:08;;;;;;;0.00;0.00;;;;;;;;;;6271475;22;19995;-69
2022/01/02 07:27:33;;;;;;;0.00;0.00;;;;;;;;;;6271761;22;20007;-69
2022/01/02 07:29:59;;;;;;;4.70;4.38;;;;;;;;;;6272018;22;20390;-70
2022/01/02 07:32:24;;;;;;;0.00;0.00;;;;;;;;;;6271831;22;19999;-70
2022/01/02 07:34:49;;;;;;;0.00;0.00;;;;;;;;;;6272489;22;20067;-70
2022/01/02 07:37:14;;;;;;;0.43;0.43;;;;;;;;;;6271601;22;20014;-70
2022/01/02 07:39:40;;;;;;;0.00;0.00;;;;;;;;;;6272193;22;20003;-70
2022/01/02 07:42:05;;;;;;;0.00;0.00;;;;;;;;;;6271489;22;19995;-70
2022/01/02 07:44:31;;;;;;;0.00;0.00;;;;;;;;;;6271514;22;19999;-70
2022/01/02 07:46:56;;;;;;;0.00;0.00;;;;;;;;;;6271657;22;19995;-70
2022/01/02 07:49:21;;;;;;;0.00;0.00;;;;;;;;;;6271401;22;20387;-71
2022/01/02 07:51:46;;;;;;;0.00;0.00;;;;;;;;;;6271744;22;20353;-70
2022/01/02 07:54:12;;;;;;;0.00;0.00;;;;;;;;;;6271464;22;20011;-70
2022/01/02 07:56:38;;;;;;;0.00;0.00;;;;;;;;;;6271569;22;20108;-70
2022/01/02 07:59:03;;;;;;;0.00;0.00;;;;;;;;;;6272205;22;19999;-70
2022/01/02 08:01:28;;;;;;;0.00;0.00;;;;;;;;;;6271616;22;20045;-70
2022/01/02 08:03:54;;;;;;;0.00;0.00;;;;;;;;;;6272107;22;20023;-70
2022/01/02 08:06:19;;;;;;;0.00;0.00;;;;;;;;;;6271339;22;20007;-70
2022/01/02 08:08:45;;;;;;;0.00;0.00;;;;;;;;;;6272077;22;20065;-70
2022/01/02 08:11:10;;;;;;;0.00;0.00;;;;;;;;;;6270853;22;20004;-70
2022/01/02 08:13:36;;;;;;;0.00;0.00;;;;;;;;;;6271842;22;20023;-69
2022/01/02 08:16:01;;;;;;;0.00;0.00;;;;;;;;;;6243770;22;20031;-70
2022/01/02 08:18:26;;;;;;;0.00;0.00;;;;;;;;;;6271468;22;20821;-70
2022/01/02 08:20:51;;;;;;;0.00;0.00;;;;;;;;;;6272049;22;19992;-69
2022/01/02 08:23:17;;;;;;;0.00;0.00;;;;;;;;;;6271269;22;20454;-70
2022/01/02 08:25:42;;;;;;;0.00;0.00;;;;;;;;;;6271696;22;19999;-69
2022/01/02 08:28:07;;;;;;;0.00;0.00;;;;;;;;;;6271623;22;20124;-70
2022/01/02 08:30:33;;;;;;;0.00;0.00;;;;;;;;;;6271708;22;20006;-71
2022/01/02 08:32:58;;;;;;;0.00;0.00;;;;;;;;;;6271834;22;20021;-64
2022/01/02 08:35:24;;;;;;;0.00;0.00;;;;;;;;;;6270890;22;20034;-64
2022/01/02 08:37:49;;;;;;;10.02;4.95;;;;;;;;;;6271841;22;20027;-64
2022/01/02 08:40:14;;;;;;;0.00;0.00;;;;;;;;;;6271549;22;20058;-64
2022/01/02 08:42:39;;;;;;;0.15;0.15;;;;;;;;;;6271486;22;20045;-63
2022/01/02 08:45:05;;;;;;;16.33;5.88;;;;;;;;;;6270705;22;19995;-64
2022/01/02 08:47:30;;;;;;;0.00;0.00;;;;;;;;;;6270438;22;20003;-64
2022/01/02 08:49:56;;;;;;;0.00;0.00;;;;;;;;;;6270762;22;20006;-64
2022/01/02 08:52:21;;;;;;;0.00;0.00;;;;;;;;;;6269849;22;19996;-64
2022/01/02 08:54:47;;;;;;;0.00;0.00;;;;;;;;;;6270810;22;19995;-65
2022/01/02 08:57:12;;;;;;;0.13;0.13;;;;;;;;;;6272103;22;20517;-65
2022/01/02 08:59:37;;;;;;;0.00;0.00;;;;;;;;;;6272439;22;20006;-63
2022/01/02 09:02:02;;;;;;;0.43;0.40;;;;;;;;;;6272531;22;20459;-64
2022/01/02 09:04:28;;;;;;;0.00;0.00;;;;;;;;;;6271747;22;19998;-65
2022/01/02 09:06:53;;;;;;;0.00;0.00;;;;;;;;;;6272564;22;20065;-65
2022/01/02 09:09:19;;;;;;;0.00;0.00;;;;;;;;;;6271801;22;20031;-65
2022/01/02 09:11:44;;;;;;;0.00;0.00;;;;;;;;;;6272403;22;20003;-64
2022/01/02 09:14:09;;;;;;;0.00;0.00;;;;;;;;;;6271423;22;20421;-64
2022/01/02 09:16:35;;;;;;;0.00;0.00;;;;;;;;;;6272361;22;20031;-64
2022/01/02 09:19:00;;;;;;;0.00;0.00;;;;;;;;;;6272138;22;19995;-64
2022/01/02 09:21:26;;;;;;;0.00;0.00;;;;;;;;;;6272633;22;19996;-64
2022/01/02 09:23:51;;;;;;;0.00;0.00;;;;;;;;;;6273162;22;20002;-64
2022/01/02 09:26:16;;;;;;;0.22;0.22;;;;;;;;;;6272703;22;20015;-64
2022/01/02 09:28:41;;;;;;;0.00;0.00;;;;;;;;;;6273184;22;20210;-64
2022/01/02 09:31:07;;;;;;;0.00;0.00;;;;;;;;;;6273141;22;20366;-64
2022/01/02 09:33:32;;;;;;;0.70;0.70;;;;;;;;;;6272539;22;20061;-65
2022/01/02 09:35:58;;;;;;;0.00;0.00;;;;;;;;;;6246079;22;20042;-64
2022/01/02 09:38:23;;;;;;;0.00;0.00;;;;;;;;;;6272886;22;20003;-64
2022/01/02 09:40:48;;;;;;;0.00;0.00;;;;;;;;;;6272959;22;20000;-65
2022/01/02 09:43:17;;;;;;;0.00;0.00;;;;;;;;;;6271936;22;19999;-64
2022/01/02 09:45:46;;;;;;;0.00;0.00;;;;;;;;;;6272962;22;20003;-64
2022/01/02 09:48:11;;;;;;;0.00;0.00;;;;;;;;;;6272987;22;20007;-64
2022/01/02 09:50:38;;;;;;;0.00;0.00;;;;;;;;;;6273307;22;20417;-64
2022/01/02 09:53:03;;;;;;;0.22;0.22;;;;;;;;;;6273045;22;20000;-64
2022/01/02 09:55:28;;;;;;;0.00;0.00;;;;;;;;;;6272039;22;20004;-64
2022/01/02 09:57:58;;;;;;;0.00;0.00;;;;;;;;;;6273051;22;19996;-65
2022/01/02 10:00:23;;;;;;;;;;;;;;;;;;6272903;22;20020;-64
2022/01/02 10:02:57;;;;;;;0.60;0.60;;;;;;;;;;6272921;22;20249;-63
2022/01/02 10:05:24;;;;;;;3.22;0.45;;;;;;;;;;6271958;22;20309;-65
2022/01/02 10:07:51;;;;;;;0.93;0.93;;;;;;;;;;6273017;22;20003;-64
2022/01/02 10:10:16;;;;;;;3.40;1.98;;;;;;;;;;6272285;22;20077;-64
2022/01/02 10:12:41;;;;;;;0.10;0.10;;;;;;;;;;6272300;22;19996;-64
2022/01/02 10:15:06;;;;;;;1.30;1.30;;;;;;;;;;6272522;22;19996;-64
2022/01/02 10:17:52;;;;;;;0.57;0.57;;;;;;;;;;6245033;22;20000;-63
2022/01/02 10:20:18;;;;;;;0.75;0.63;;;;;;;;;;6270976;22;20475;-64
2022/01/02 10:23:01;;;;;;;1.45;1.38;;;;;;;;;;6272680;22;20004;-64
2022/01/02 10:25:45;;;;;;;1.15;1.15;;;;;;;;;;6271886;22;19995;-63
2022/01/02 10:28:21;;;;;;;2.25;2.03;;;;;;;;;;6272082;22;20356;-64
2022/01/02 10:30:47;;;;;;;0.88;0.88;;;;;;;;;;6245582;22;20007;-64
2022/01/02 10:33:12;;;;;;;0.65;0.65;;;;;;;;;;6272195;22;20014;-64
2022/01/02 10:35:37;;;;;;;1.13;1.13;;;;;;;;;;6272401;22;20079;-63
2022/01/02 10:38:04;;;;;;;0.20;0.20;;;;;;;;;;6272725;22;20071;-63
2022/01/02 10:40:29;;;;;;;0.80;0.80;;;;;;;;;;6271179;22;20002;-64
2022/01/02 10:42:55;;;;;;;1.98;1.88;;;;;;;;;;6272251;22;19996;-64
2022/01/02 10:45:31;;;;;;;2.08;0.90;;;;;;;;;;6271976;22;20034;-64
2022/01/02 10:47:56;;;;;;;0.55;0.55;;;;;;;;;;6272445;22;20083;-64
2022/01/02 10:50:21;;;;;;;1.23;1.13;;;;;;;;;;6271574;22;20398;-63
2022/01/02 10:52:47;;;;;;;1.13;1.02;;;;;;;;;;6271068;22;19995;-64
2022/01/02 10:55:14;;;;;;;1.58;1.58;;;;;;;;;;6270365;22;20004;-65
2022/01/02 10:57:42;;;;;;;0.25;0.25;;;;;;;;;;6271029;22;20003;-66
2022/01/02 11:00:08;;;;;;;0.10;0.10;;;;;;;;;;6244035;22;20003;-66
2022/01/02 11:02:33;;;;;;;0.00;0.00;;;;;;;;;;6271247;22;20330;-66
2022/01/02 11:05:03;;;;;;;0.00;0.00;;;;;;;;;;6271743;22;20010;-64
2022/01/02 11:07:31;;;;;;;0.00;0.00;;;;;;;;;;6271222;22;20567;-66
2022/01/02 11:09:56;;;;;;;7.13;2.88;;;;;;;;;;6270831;22;20030;-65
2022/01/02 11:12:22;;;;;;;0.08;0.08;;;;;;;;;;6269862;22;20468;-67
2022/01/02 11:14:48;;;;;;;3.05;2.25;;;;;;;;;;6271560;22;20121;-66
2022/01/02 11:17:14;;;;;;;0.17;0.17;;;;;;;;;;6270145;22;20527;-67
2022/01/02 11:19:39;;;;;;;0.00;0.00;;;;;;;;;;6272278;22;20003;-64
2022/01/02 11:22:07;;;;;;;0.00;0.00;;;;;;;;;;6271833;22;20406;-65
2022/01/02 11:24:38;;;;;;;0.00;0.00;;;;;;;;;;6244105;22;20011;-65
2022/01/02 11:27:06;;;;;;;0.00;0.00;;;;;;;;;;6271587;22;20019;-67
2022/01/02 11:29:33;;;;;;;0.10;0.10;;;;;;;;;;6271664;22;19996;-64
2022/01/02 11:31:59;;;;;;;0.00;0.00;;;;;;;;;;6272019;22;20000;-65
2022/01/02 11:34:33;;;;;;;0.10;0.10;;;;;;;;;;6270997;22;20061;-66
2022/01/02 11:37:10;;;;;;;3.75;3.55;;;;;;;;;;6271657;22;20034;-65
2022/01/02 11:39:50;;;;;;;0.00;0.00;;;;;;;;;;6271577;22;20014;-65
2022/01/02 11:42:15;;;;;;;;;;;;;;;;;;6271861;22;20030;-66
2022/01/02 11:44:47;;;;;;;2.33;2.28;;;;;;;;;;6272060;22;19903;-64
2022/01/02 11:47:32;;;;;;;0.00;0.00;;;;;;;;;;6271878;22;20057;-66
2022/01/02 11:49:58;;;;;;;0.00;0.00;;;;;;;;;;6272007;22;20042;-64
2022/01/02 11:52:23;;;;;;;3.42;3.25;;;;;;;;;;6271437;22;20004;-65
2022/01/02 11:54:55;;;;;;;0.43;0.32;;;;;;;;;;6271689;22;19999;-66
2022/01/02 11:57:25;;;;;;;0.00;0.00;;;;;;;;;;6270997;22;20081;-65
2022/01/02 11:59:52;;;;;;;0.00;0.00;;;;;;;;;;6272117;22;20042;-66
2022/01/02 12:02:24;;;;;;;0.00;0.00;;;;;;;;;;6271266;22;20019;-66
2022/01/02 12:04:59;;;;;;;0.00;0.00;;;;;;;;;;6271300;22;19996;-66
2022/01/02 12:07:37;;;;;;;0.00;0.00;;;;;;;;;;6271283;22;20013;-66
2022/01/02 12:10:15;;;;;;;6.72;2.30;;;;;;;;;;6271781;22;20079;-66
2022/01/02 12:12:59;;;;;;;4.68;0.52;;;;;;;;;;6244857;22;20003;-66
2022/01/02 12:15:30;;;;;;;0.00;0.00;;;;;;;;;;6271186;22;20007;-65
2022/01/02 12:18:07;;;;;;;0.00;0.00;;;;;;;;;;6271660;22;20062;-66
2022/01/02 12:20:54;;;;;;;0.08;0.08;;;;;;;;;;6271091;22;19996;-65
2022/01/02 12:23:31;;;;;;;0.00;0.00;;;;;;;;;;6269812;22;20673;-66
2022/01/02 12:26:00;;;;;;;0.00;0.00;;;;;;;;;;6270674;22;20123;-66
2022/01/02 12:28:27;;;;;;;0.00;0.00;;;;;;;;;;6270341;22;20018;-65
2022/01/02 12:30:52;;;;;;;0.00;0.00;;;;;;;;;;6272166;22;19999;-66
2022/01/02 12:33:24;;;;;;;0.10;0.10;;;;;;;;;;6272291;22;20065;-65
2022/01/02 12:35:49;;;;;;;0.00;0.00;;;;;;;;;;6271779;22;20311;-66
2022/01/02 12:38:14;;;;;;;0.00;0.00;;;;;;;;;;6272163;22;20010;-65
2022/01/02 12:40:40;;;;;;;1.23;1.23;;;;;;;;;;6272634;22;20071;-66
2022/01/02 12:43:05;;;;;;;0.00;0.00;;;;;;;;;;6272635;22;20446;-65
2022/01/02 12:45:30;;;;;;;0.00;0.00;;;;;;;;;;6271987;22;20006;-66
2022/01/02 12:47:57;;;;;;;0.47;0.45;;;;;;;;;;6272451;22;19999;-66
2022/01/02 12:50:26;;;;;;;0.47;0.47;;;;;;;;;;6271515;22;20410;-67
2022/01/02 12:52:52;;;;;;;0.00;0.00;;;;;;;;;;6272160;22;20077;-66
2022/01/02 12:55:17;;;;;;;1.42;1.30;;;;;;;;;;6244895;22;20402;-66
2022/01/02 12:57:44;;;;;;;0.77;0.77;;;;;;;;;;6271771;22;20006;-66
2022/01/02 13:00:09;;;;;;;0.00;0.00;;;;;;;;;;6272323;22;20070;-65
2022/01/02 13:02:34;;;;;;;0.10;0.10;;;;;;;;;;6244007;22;20054;-67
2022/01/02 13:05:02;;;;;;;0.00;0.00;;;;;;;;;;6270406;22;20057;-65
2022/01/02 13:07:27;;;;;;;5.40;2.55;;;;;;;;;;6270700;22;20000;-65
2022/01/02 13:09:54;;;;;;;0.00;0.00;;;;;;;;;;6272351;22;20019;-65
2022/01/02 13:12:20;;;;;;;1.13;0.98;;;;;;;;;;6271736;22;20010;-65
2022/01/02 13:14:55;;;;;;;0.00;0.00;;;;;;;;;;6272541;22;20004;-66
2022/01/02 13:17:21;;;;;;;3.40;0.52;;;;;;;;;;6271973;22;20004;-65
2022/01/02 13:19:49;;;;;;;0.00;0.00;;;;;;;;;;6272396;22;19999;-66
2022/01/02 13:22:16;;;;;;;0.55;0.45;;;;;;;;;;6271552;22;19995;-64
2022/01/02 13:24:42;;;;;;;0.00;0.00;;;;;;;;;;6272365;22;20000;-65
2022/01/02 13:27:07;;;;;;;0.15;0.15;;;;;;;;;;6271925;22;20496;-66
2022/01/02 13:29:33;;;;;;;2.22;2.05;;;;;;;;;;6271337;22;20007;-65
2022/01/02 13:32:10;;;;;;;0.00;0.00;;;;;;;;;;6272238;22;20003;-66
2022/01/02 13:34:35;;;;;;;1.85;1.75;;;;;;;;;;6272002;22;20827;-66
2022/01/02 13:37:01;;;;;;;3.13;1.52;;;;;;;;;;6271607;22;20031;-65
2022/01/02 13:39:45;;;;;;;0.25;0.25;;;;;;;;;;6271550;22;20007;-66
2022/01/02 13:42:12;;;;;;;0.65;0.65;;;;;;;;;;6272997;22;20544;-65
2022/01/02 13:44:39;;;;;;;0.15;0.15;;;;;;;;;;6272441;22;19999;-65
2022/01/02 13:47:04;;;;;;;0.47;0.47;;;;;;;;;;6273080;22;20003;-66
2022/01/02 13:49:46;;;;;;;0.45;0.45;;;;;;;;;;6245793;22;20421;-65
2022/01/02 13:52:12;;;;;;;0.00;0.00;;;;;;;;;;6273243;22;20099;-65
2022/01/02 13:54:38;;;;;;;0.00;0.00;;;;;;;;;;6272414;22;20298;-65
2022/01/02 13:57:07;;;;;;;1.65;0.65;;;;;;;;;;6272315;22;20011;-65
2022/01/02 13:59:32;;;;;;;1.30;0.95;;;;;;;;;;6271075;22;19995;-65
2022/01/02 14:01:58;;;;;;;0.82;0.82;;;;;;;;;;6271788;22;20071;-65
2022/01/02 14:04:23;;;;;;;14.05;3.30;;;;;;;;;;6271204;22;20083;-64
2022/01/02 14:06:48;;;;;;;2.53;0.20;;;;;;;;;;6271512;22;20003;-65
2022/01/02 14:09:15;;;;;;;1.88;1.77;;;;;;;;;;6271995;22;20010;-65
2022/01/02 14:11:41;;;;;;;0.00;0.00;;;;;;;;;;6271497;22;20075;-65
2022/01/02 14:14:36;;;;;;;0.00;0.00;;;;;;;;;;6271743;22;20046;-64
2022/01/02 14:19:31;;;;;;;0.15;0.15;;;;;;;;;;6271034;22;20604;-65
2022/01/02 14:21:56;;;;;;;0.52;0.52;;;;;;;;;;6271624;22;20003;-65
2022/01/02 14:24:22;;;;;;;0.38;0.38;;;;;;;;;;6271389;22;20390;-65
2022/01/02 14:26:49;;;;;;;0.00;0.00;;;;;;;;;;6271488;22;20019;-66
2022/01/02 14:29:14;;;;;;;0.70;0.70;;;;;;;;;;6244140;22;20429;-64
2022/01/02 14:31:40;;;;;;;0.05;0.03;;;;;;;;;;6271270;22;19999;-65
2022/01/02 14:34:05;;;;;;;0.00;0.00;;;;;;;;;;6271844;22;20020;-64
2022/01/02 14:36:30;;;;;;;2.53;0.57;;;;;;;;;;6271558;22;20095;-64
2022/01/02 14:38:56;;;;;;;1.45;1.23;;;;;;;;;;6272850;22;19999;-63
2022/01/02 14:41:21;;;;;;;0.10;0.10;;;;;;;;;;6244801;22;20456;-65
2022/01/02 14:43:48;;;;;;;0.43;0.43;;;;;;;;;;6272475;22;20061;-65
2022/01/02 14:46:14;;;;;;;0.25;0.10;;;;;;;;;;6272525;22;19999;-66
2022/01/02 14:48:39;;;;;;;0.15;0.15;;;;;;;;;;6272027;22;20044;-65
2022/01/02 14:51:05;;;;;;;0.35;0.35;;;;;;;;;;6271829;22;20000;-64
2022/01/02 14:53:36;;;;;;;0.00;0.00;;;;;;;;;;6271701;22;20000;-64